createdAt,value
2018-10-02T00:01:04.420Z,13.23
2018-10-02T00:03:33.114Z,12.77
2018-10-02T00:06:01.570Z,11.00
2018-10-02T00:08:30.069Z,9.80
2018-10-02T00:11:03.780Z,13.10
2018-10-02T00:13:37.540Z,13.23
2018-10-02T00:16:06.093Z,12.83
2018-10-02T00:18:34.572Z,8.83
2018-10-02T00:21:02.972Z,13.30
2018-10-02T00:23:31.472Z,15.07
2018-10-02T00:25:59.941Z,8.43
2018-10-02T00:28:28.325Z,13.33
2018-10-02T00:30:57.703Z,16.75
2018-10-02T00:33:26.112Z,9.93
2018-10-02T00:35:54.538Z,14.50
2018-10-02T00:38:22.975Z,10.67
2018-10-02T00:40:51.515Z,6.87
2018-10-02T00:43:19.974Z,9.63
2018-10-02T00:45:48.646Z,14.55
2018-10-02T00:48:17.123Z,10.57
2018-10-02T00:50:45.583Z,10.83
2018-10-02T00:53:14.013Z,9.50
2018-10-02T00:55:42.705Z,10.60
2018-10-02T00:58:11.143Z,10.87
2018-10-02T01:00:39.700Z,7.83
2018-10-02T01:03:08.216Z,12.43
2018-10-02T01:05:36.643Z,6.25
2018-10-02T01:08:05.112Z,13.30
2018-10-02T01:10:33.572Z,11.15
2018-10-02T01:13:02.024Z,8.80
2018-10-02T01:15:30.583Z,10.05
2018-10-02T01:17:59.004Z,11.87
2018-10-02T01:20:27.547Z,13.03
2018-10-02T01:22:55.990Z,15.13
2018-10-02T01:25:24.393Z,10.07
2018-10-02T01:27:52.869Z,12.55
2018-10-02T01:30:21.265Z,10.43
2018-10-02T01:32:49.795Z,17.57
2018-10-02T01:35:18.225Z,11.93
2018-10-02T01:37:46.702Z,14.40
2018-10-02T01:40:15.747Z,11.95
2018-10-02T01:42:44.186Z,15.07
2018-10-02T01:45:12.660Z,13.35
2018-10-02T01:47:41.092Z,12.30
2018-10-02T01:50:10.132Z,17.30
2018-10-02T01:52:38.558Z,13.57
2018-10-02T01:55:06.984Z,16.42
2018-10-02T01:57:35.436Z,14.30
2018-10-02T02:00:05.148Z,12.97
2018-10-02T02:02:33.754Z,14.50
2018-10-02T02:05:02.293Z,20.77
2018-10-02T02:07:30.779Z,17.23
2018-10-02T02:09:59.204Z,11.37
2018-10-02T02:12:27.721Z,15.15
2018-10-02T02:14:56.124Z,14.67
2018-10-02T02:17:24.605Z,15.87
2018-10-02T02:19:53.072Z,15.93
2018-10-02T02:22:21.547Z,11.97
2018-10-02T02:24:49.976Z,20.53
2018-10-02T02:27:18.380Z,13.93
2018-10-02T02:29:46.964Z,13.10
2018-10-02T02:32:15.699Z,12.75
2018-10-02T02:34:44.129Z,13.60
2018-10-02T02:37:12.592Z,14.07
2018-10-02T02:39:41.021Z,9.57
2018-10-02T02:42:09.416Z,14.87
2018-10-02T02:44:37.990Z,16.37
2018-10-02T02:47:12.074Z,10.83
2018-10-02T02:49:45.636Z,19.90
2018-10-02T02:52:14.889Z,21.03
2018-10-02T02:54:47.000Z,12.77
2018-10-02T02:57:15.656Z,12.47
2018-10-02T02:59:44.125Z,15.93
2018-10-02T03:02:12.508Z,16.07
2018-10-02T03:04:42.065Z,16.03
2018-10-02T03:07:10.494Z,21.73
2018-10-02T03:09:38.972Z,21.47
2018-10-02T03:12:07.586Z,16.00
2018-10-02T03:14:36.053Z,15.57
2018-10-02T03:17:04.676Z,21.43
2018-10-02T03:19:33.159Z,14.80
2018-10-02T03:22:01.558Z,14.63
2018-10-02T03:24:30.048Z,13.53
2018-10-02T03:26:58.967Z,18.13
2018-10-02T03:29:27.588Z,12.93
2018-10-02T03:31:56.084Z,15.30
2018-10-02T03:34:24.519Z,12.75
2018-10-02T03:36:53.324Z,13.80
2018-10-02T03:39:21.769Z,15.10
2018-10-02T03:41:50.237Z,18.77
2018-10-02T03:44:19.012Z,11.20
2018-10-02T03:51:47.851Z,24.92
2018-10-02T03:54:16.329Z,18.07
2018-10-02T03:56:45.849Z,17.10
2018-10-02T03:59:14.237Z,16.07
2018-10-02T04:01:43.056Z,16.02
2018-10-02T04:04:11.740Z,12.95
2018-10-02T04:06:40.226Z,18.98
2018-10-02T04:09:11.161Z,13.10
2018-10-02T04:11:39.600Z,12.88
2018-10-02T04:14:08.666Z,15.40
2018-10-02T04:16:37.104Z,14.13
2018-10-02T04:19:05.612Z,12.97
2018-10-02T04:21:35.110Z,17.57
2018-10-02T04:24:05.127Z,13.13
2018-10-02T04:26:35.286Z,14.38
2018-10-02T04:29:04.403Z,12.83
2018-10-02T04:31:34.271Z,15.43
2018-10-02T04:34:02.853Z,15.28
2018-10-02T04:36:31.627Z,15.48
2018-10-02T04:39:00.148Z,13.73
2018-10-02T04:41:28.698Z,15.48
2018-10-02T04:43:57.132Z,11.13
2018-10-02T04:46:25.582Z,18.13
2018-10-02T04:48:54.036Z,14.77
2018-10-02T04:51:22.508Z,11.77
2018-10-02T04:53:50.949Z,14.00
2018-10-02T04:56:19.533Z,13.43
2018-10-02T04:58:47.884Z,11.30
2018-10-02T05:01:16.335Z,19.07
2018-10-02T05:03:44.795Z,14.93
2018-10-02T05:06:13.305Z,16.03
2018-10-02T05:08:41.724Z,13.62
2018-10-02T05:11:10.699Z,9.85
2018-10-02T05:13:39.095Z,17.80
2018-10-02T05:16:07.595Z,10.73
2018-10-02T05:18:36.136Z,10.23
2018-10-02T05:21:04.529Z,11.18
2018-10-02T05:23:32.953Z,10.67
2018-10-02T05:26:02.309Z,8.50
2018-10-02T05:28:30.788Z,15.83
2018-10-02T05:30:59.225Z,11.57
2018-10-02T05:33:27.636Z,10.50
2018-10-02T05:35:57.033Z,15.45
2018-10-02T05:38:25.448Z,11.18
2018-10-02T05:40:53.884Z,15.70
2018-10-02T05:43:22.341Z,9.40
2018-10-02T05:45:51.837Z,9.73
2018-10-02T05:48:20.333Z,21.77
2018-10-02T05:50:48.942Z,7.50
2018-10-02T05:53:17.383Z,13.13
2018-10-02T05:55:46.845Z,11.77
2018-10-02T05:58:15.387Z,12.27
2018-10-02T06:00:43.884Z,6.17
2018-10-02T06:03:12.414Z,5.95
2018-10-02T06:05:40.902Z,10.77
2018-10-02T06:08:09.397Z,13.73
2018-10-02T06:10:37.820Z,16.17
2018-10-02T06:13:06.397Z,11.63
2018-10-02T06:15:35.044Z,6.93
2018-10-02T06:18:03.479Z,14.67
2018-10-02T06:20:31.896Z,9.40
2018-10-02T06:23:00.331Z,9.63
2018-10-02T06:25:28.744Z,7.93
2018-10-02T06:27:57.269Z,7.50
2018-10-02T06:30:25.771Z,13.23
2018-10-02T06:32:54.167Z,13.17
2018-10-02T06:35:24.397Z,5.25
2018-10-02T06:37:52.989Z,15.35
2018-10-02T06:40:22.288Z,6.93
2018-10-02T06:42:50.744Z,15.10
2018-10-02T06:45:19.167Z,10.77
2018-10-02T06:47:47.675Z,11.07
2018-10-02T06:50:18.984Z,7.73
2018-10-02T06:52:47.565Z,10.73
2018-10-02T06:55:16.485Z,11.23
2018-10-02T06:57:46.191Z,12.07
2018-10-02T07:00:15.682Z,9.10
2018-10-02T07:02:44.180Z,7.53
2018-10-02T07:05:12.765Z,8.48
2018-10-02T07:07:41.232Z,15.83
2018-10-02T07:10:12.911Z,8.67
2018-10-02T07:12:52.221Z,7.50
2018-10-02T07:15:21.840Z,4.90
2018-10-02T07:17:50.641Z,6.43
2018-10-02T07:20:21.134Z,12.87
2018-10-02T07:22:50.810Z,7.67
2018-10-02T07:25:20.631Z,13.75
2018-10-02T07:27:51.050Z,4.80
2018-10-02T07:30:21.237Z,5.93
2018-10-02T07:32:50.971Z,7.90
2018-10-02T07:35:20.456Z,13.95
2018-10-02T07:37:49.146Z,8.88
2018-10-02T07:40:19.550Z,9.80
2018-10-02T07:42:48.014Z,8.30
2018-10-02T07:45:16.473Z,13.95
2018-10-02T07:47:44.999Z,6.47
2018-10-02T07:50:14.103Z,8.10
2018-10-02T07:52:43.548Z,9.13
2018-10-02T07:55:12.250Z,12.00
2018-10-02T07:57:40.822Z,8.63
2018-10-02T08:00:09.457Z,8.83
2018-10-02T08:02:37.733Z,4.73
2018-10-02T08:05:06.290Z,7.67
2018-10-02T08:07:34.650Z,5.20
2018-10-02T08:10:08.396Z,13.33
2018-10-02T08:12:39.412Z,8.53
2018-10-02T08:15:07.916Z,5.08
2018-10-02T08:17:36.732Z,5.78
2018-10-02T08:20:05.300Z,4.90
2018-10-02T08:22:33.829Z,5.90
2018-10-02T08:25:02.282Z,10.53
2018-10-02T08:27:30.722Z,7.75
2018-10-02T08:29:59.544Z,8.00
2018-10-02T08:32:28.070Z,9.60
2018-10-02T08:39:52.737Z,8.75
2018-10-02T08:42:21.134Z,10.30
2018-10-02T08:44:49.827Z,7.70
2018-10-02T08:47:18.257Z,8.63
2018-10-02T08:49:46.868Z,9.43
2018-10-02T08:52:17.359Z,7.93
2018-10-02T08:54:46.516Z,7.13
2018-10-02T08:57:16.865Z,8.30
2018-10-02T08:59:45.727Z,8.30
2018-10-02T09:02:14.218Z,9.53
2018-10-02T09:04:42.720Z,8.23
2018-10-02T09:07:11.156Z,7.77
2018-10-02T09:09:39.670Z,7.30
2018-10-02T09:12:08.981Z,11.33
2018-10-02T09:14:37.532Z,7.53
2018-10-02T09:17:12.753Z,9.70
2018-10-02T09:19:41.214Z,8.03
2018-10-02T09:22:09.641Z,11.67
2018-10-02T09:24:38.131Z,4.23
2018-10-02T09:27:06.663Z,13.87
2018-10-02T09:29:39.352Z,7.30
2018-10-02T09:32:13.061Z,8.10
2018-10-02T09:34:47.483Z,9.25
2018-10-02T09:38:21.376Z,8.37
2018-10-02T09:40:55.164Z,10.65
2018-10-02T09:43:31.009Z,8.30
2018-10-02T09:45:59.933Z,11.10
2018-10-02T09:48:29.397Z,8.40
2018-10-02T09:50:57.882Z,10.80
2018-10-02T09:53:26.277Z,6.40
2018-10-02T09:55:54.675Z,8.13
2018-10-02T09:58:23.139Z,7.03
2018-10-02T10:00:57.001Z,9.57
2018-10-02T10:03:25.329Z,10.37
2018-10-02T10:05:53.716Z,8.78
2018-10-02T10:08:22.157Z,10.20
2018-10-02T10:10:50.560Z,5.42
2018-10-02T10:13:19.318Z,13.87
2018-10-02T10:15:47.708Z,14.40
2018-10-02T10:18:16.177Z,8.17
2018-10-02T10:20:44.688Z,9.97
2018-10-02T10:23:15.397Z,6.07
2018-10-02T10:25:45.208Z,5.15
2018-10-02T10:28:13.640Z,8.60
2018-10-02T10:30:44.797Z,11.93
2018-10-02T10:33:15.041Z,8.40
2018-10-02T10:35:43.596Z,17.83
2018-10-02T10:38:13.530Z,8.70
2018-10-02T10:40:42.141Z,18.60
2018-10-02T10:43:10.669Z,8.60
2018-10-02T10:45:39.594Z,10.18
2018-10-02T10:48:08.103Z,10.00
2018-10-02T10:50:36.675Z,11.23
2018-10-02T10:53:05.253Z,9.38
2018-10-02T10:55:35.187Z,10.45
2018-10-02T10:58:03.786Z,9.95
2018-10-02T11:00:32.276Z,7.20
2018-10-02T11:03:01.798Z,10.88
2018-10-02T11:05:30.633Z,13.50
2018-10-02T11:07:59.161Z,10.07
2018-10-02T11:10:27.618Z,7.87
2018-10-02T11:12:56.072Z,6.13
2018-10-02T11:15:26.022Z,9.20
2018-10-02T11:17:54.501Z,9.53
2018-10-02T11:20:27.052Z,9.23
2018-10-02T11:22:55.537Z,6.40
2018-10-02T11:25:28.280Z,5.30
2018-10-02T11:27:56.959Z,11.50
2018-10-02T11:30:25.505Z,9.60
2018-10-02T11:32:54.634Z,6.87
2018-10-02T11:35:23.266Z,11.13
2018-10-02T11:37:52.176Z,9.30
2018-10-02T11:40:20.586Z,12.20
2018-10-02T11:42:52.031Z,8.87
2018-10-02T11:45:20.516Z,7.80
2018-10-02T11:47:48.917Z,7.97
2018-10-02T11:50:17.393Z,9.50
2018-10-02T11:52:45.888Z,13.10
2018-10-02T11:55:14.408Z,8.37
2018-10-02T11:57:43.664Z,10.00
2018-10-02T12:00:12.724Z,13.72
2018-10-02T12:02:41.303Z,6.13
2018-10-02T12:05:09.644Z,6.62
2018-10-02T12:07:38.661Z,11.03
2018-10-02T12:10:07.508Z,10.53
2018-10-02T12:12:36.553Z,7.27
2018-10-02T12:15:05.499Z,4.90
2018-10-02T12:17:34.448Z,8.27
2018-10-02T12:20:03.316Z,7.97
2018-10-02T12:22:31.882Z,6.55
2018-10-02T12:25:00.629Z,9.50
2018-10-02T12:27:29.429Z,8.63
2018-10-02T12:29:58.486Z,8.70
2018-10-02T12:32:26.965Z,4.70
2018-10-02T12:34:55.380Z,10.77
2018-10-02T12:37:24.087Z,20.83
2018-10-02T12:39:52.530Z,11.50
2018-10-02T12:42:21.109Z,12.53
2018-10-02T12:44:49.876Z,20.83
2018-10-02T12:47:18.296Z,10.60
2018-10-02T12:49:47.206Z,6.50
2018-10-02T12:52:16.043Z,18.40
2018-10-02T12:54:44.470Z,7.80
2018-10-02T12:57:13.040Z,10.23
2018-10-02T12:59:42.423Z,9.53
2018-10-02T13:02:10.952Z,9.13
2018-10-02T13:04:39.449Z,6.50
2018-10-02T13:07:07.767Z,14.63
2018-10-02T13:09:36.290Z,15.03
2018-10-02T13:12:04.781Z,10.63
2018-10-02T13:14:33.177Z,15.80
2018-10-02T13:17:01.550Z,5.60
2018-10-02T13:19:31.024Z,7.05
2018-10-02T13:21:59.438Z,5.87
2018-10-02T13:24:27.875Z,5.97
2018-10-02T13:26:56.364Z,8.53
2018-10-02T13:29:24.779Z,10.20
2018-10-02T13:31:53.233Z,8.13
2018-10-02T13:34:21.663Z,7.10
2018-10-02T13:36:50.385Z,11.97
2018-10-02T13:39:18.867Z,8.03
2018-10-02T13:41:47.327Z,6.22
2018-10-02T13:44:16.055Z,8.75
2018-10-02T13:46:44.984Z,9.93
2018-10-02T13:49:13.649Z,9.93
2018-10-02T13:51:42.129Z,8.53
2018-10-02T13:54:10.915Z,7.78
2018-10-02T13:56:39.437Z,8.20
2018-10-02T13:59:07.844Z,8.45
2018-10-02T14:01:36.885Z,8.93
2018-10-02T14:04:05.580Z,8.00
2018-10-02T14:06:34.000Z,7.27
2018-10-02T14:09:02.583Z,6.43
2018-10-02T14:11:31.006Z,7.77
2018-10-02T14:13:59.456Z,8.97
2018-10-02T14:16:27.944Z,12.30
2018-10-02T14:18:56.388Z,8.20
2018-10-02T14:21:24.920Z,7.00
2018-10-02T14:23:59.825Z,9.83
2018-10-02T14:26:28.346Z,11.87
2018-10-02T14:28:56.837Z,12.73
2018-10-02T14:31:25.352Z,7.87
2018-10-02T14:33:53.780Z,6.80
2018-10-02T14:36:22.211Z,9.88
2018-10-02T14:38:50.752Z,9.03
2018-10-02T14:41:19.234Z,9.90
2018-10-02T14:43:47.684Z,7.85
2018-10-02T14:46:16.104Z,10.40
2018-10-02T14:53:39.231Z,9.38
2018-10-02T14:56:07.646Z,8.07
2018-10-02T14:58:36.136Z,8.00
2018-10-02T15:01:04.579Z,8.08
2018-10-02T15:03:33.058Z,13.10
2018-10-02T15:06:01.530Z,17.43
2018-10-02T15:08:30.093Z,11.60
2018-10-02T15:10:58.578Z,6.50
2018-10-02T15:13:27.068Z,12.43
2018-10-02T15:15:55.618Z,10.93
2018-10-02T15:18:24.030Z,7.20
2018-10-02T15:20:52.534Z,11.20
2018-10-02T15:23:21.009Z,13.77
2018-10-02T15:25:49.580Z,8.73
2018-10-02T15:28:18.011Z,10.63
2018-10-02T15:30:46.472Z,9.80
2018-10-02T15:33:14.911Z,10.30
2018-10-02T15:35:43.452Z,9.85
2018-10-02T15:38:12.344Z,10.13
2018-10-02T15:40:41.263Z,9.43
2018-10-02T15:43:10.017Z,10.53
2018-10-02T15:45:42.531Z,10.67
2018-10-02T15:48:12.622Z,7.40
2018-10-02T16:18:01.525Z,5.00
2018-10-02T16:20:29.904Z,14.27
2018-10-02T16:22:58.332Z,6.27
2018-10-02T16:25:27.125Z,5.10
2018-10-02T16:27:56.314Z,5.97
2018-10-02T16:30:24.815Z,6.60
2018-10-02T16:32:53.232Z,7.50
2018-10-02T16:35:21.781Z,8.45
2018-10-02T16:37:50.328Z,4.80
2018-10-02T16:40:18.778Z,7.17
2018-10-02T16:42:47.175Z,5.00
2018-10-02T16:45:16.184Z,6.60
2018-10-02T16:47:44.601Z,4.55
2018-10-02T16:50:12.988Z,4.67
2018-10-02T16:52:41.385Z,4.80
2018-10-02T16:55:09.821Z,5.00
2018-10-02T16:57:38.550Z,4.33
2018-10-02T17:00:08.412Z,4.70
2018-10-02T17:02:36.898Z,5.90
2018-10-02T17:05:05.408Z,4.50
2018-10-02T17:07:33.881Z,7.53
2018-10-02T17:10:02.454Z,5.13
2018-10-02T17:12:30.987Z,4.60
2018-10-02T17:14:59.409Z,4.60
2018-10-02T17:17:27.876Z,4.20
2018-10-02T17:19:56.345Z,3.60
2018-10-02T17:22:25.100Z,3.75
2018-10-02T17:24:54.236Z,4.13
2018-10-02T17:27:23.533Z,4.10
2018-10-02T17:29:51.994Z,4.13
2018-10-02T17:32:20.628Z,3.70
2018-10-02T17:34:49.121Z,3.10
2018-10-02T17:37:17.613Z,3.60
2018-10-02T17:39:46.069Z,3.20
2018-10-02T17:42:14.564Z,3.63
2018-10-02T17:44:43.128Z,3.40
2018-10-02T17:47:11.600Z,6.05
2018-10-02T17:49:40.055Z,3.63
2018-10-02T17:52:08.942Z,6.50
2018-10-02T17:54:37.445Z,4.20
2018-10-02T17:57:05.948Z,4.17
2018-10-02T17:59:34.412Z,2.90
2018-10-02T18:02:02.812Z,3.30
2018-10-02T18:04:31.219Z,3.17
2018-10-02T18:06:59.646Z,3.47
2018-10-02T18:09:28.067Z,4.70
2018-10-02T18:12:03.146Z,3.30
2018-10-02T18:14:32.078Z,3.97
2018-10-02T18:17:00.566Z,3.90
2018-10-02T18:19:29.061Z,3.25
2018-10-02T18:21:57.569Z,3.40
2018-10-02T18:24:25.996Z,3.30
2018-10-02T18:26:54.490Z,3.77
2018-10-02T18:29:23.027Z,3.60
2018-10-02T18:31:51.571Z,3.60
2018-10-02T18:34:20.057Z,3.40
2018-10-02T18:36:48.483Z,3.60
2018-10-02T18:39:16.957Z,3.97
2018-10-02T18:41:45.393Z,3.83
2018-10-02T18:44:13.993Z,3.70
2018-10-02T18:46:42.705Z,3.70
2018-10-02T18:49:11.425Z,5.07
2018-10-02T18:51:39.869Z,4.40
2018-10-02T18:54:08.384Z,3.80
2018-10-02T18:56:36.884Z,3.73
2018-10-02T18:59:05.367Z,4.77
2018-10-02T19:01:34.605Z,4.03
2018-10-02T19:04:04.095Z,4.07
2018-10-02T19:06:32.645Z,4.40
2018-10-02T19:09:06.472Z,6.03
2018-10-02T19:11:40.185Z,4.90
2018-10-02T19:14:08.747Z,4.72
2018-10-02T19:16:37.369Z,4.37
2018-10-02T19:19:09.714Z,4.58
2018-10-02T19:21:38.259Z,7.07
2018-10-02T19:24:06.870Z,4.83
2018-10-02T19:26:35.535Z,4.58
2018-10-02T19:29:04.085Z,5.00
2018-10-02T19:31:37.790Z,5.22
2018-10-02T19:34:06.430Z,8.33
2018-10-02T19:36:35.004Z,5.10
2018-10-02T19:39:09.206Z,5.30
2018-10-02T19:41:37.897Z,6.08
2018-10-02T19:44:06.779Z,5.63
2018-10-02T19:46:41.536Z,5.95
2018-10-02T19:49:24.192Z,5.23
2018-10-02T19:52:06.022Z,5.60
2018-10-02T19:54:34.853Z,6.45
2018-10-02T19:57:03.488Z,7.33
2018-10-02T19:59:41.176Z,5.67
2018-10-02T20:02:09.663Z,6.40
2018-10-02T20:04:38.477Z,6.03
2018-10-02T20:07:07.078Z,5.77
2018-10-02T20:09:35.516Z,6.53
2018-10-02T20:12:04.009Z,6.40
2018-10-02T20:14:32.716Z,6.58
2018-10-02T20:17:01.312Z,6.08
2018-10-02T20:19:30.813Z,6.13
2018-10-02T20:21:59.331Z,6.43
2018-10-02T20:24:27.858Z,6.47
2018-10-02T20:26:56.340Z,7.07
2018-10-02T20:29:24.787Z,6.43
2018-10-02T20:31:53.644Z,7.50
2018-10-02T20:34:22.116Z,7.57
2018-10-02T20:36:50.685Z,7.50
2018-10-02T20:39:20.425Z,8.90
2018-10-02T20:41:48.895Z,7.17
2018-10-02T20:44:17.486Z,7.27
2018-10-02T20:46:45.968Z,8.20
2018-10-02T20:49:14.516Z,7.20
2018-10-02T20:51:42.969Z,9.90
2018-10-02T20:54:11.404Z,8.90
2018-10-02T20:56:40.005Z,8.00
2018-10-02T20:59:08.755Z,9.13
2018-10-02T21:01:37.568Z,7.67
2018-10-02T21:04:06.061Z,10.57
2018-10-02T21:06:34.775Z,10.03
2018-10-02T21:09:03.760Z,9.10
2018-10-02T21:11:32.238Z,14.83
2018-10-02T21:14:00.653Z,9.00
2018-10-02T21:16:29.129Z,12.17
2018-10-02T21:18:57.711Z,9.47
2018-10-02T21:21:26.181Z,11.60
2018-10-02T21:23:54.655Z,11.73
2018-10-02T21:26:23.176Z,12.27
2018-10-02T21:28:51.877Z,9.78
2018-10-02T21:31:20.414Z,12.43
2018-10-02T21:33:48.612Z,11.83
2018-10-02T21:36:17.073Z,14.10
2018-10-02T21:38:46.449Z,10.77
2018-10-02T21:41:14.882Z,10.20
2018-10-02T21:43:43.631Z,11.70
2018-10-02T21:46:12.117Z,10.03
2018-10-02T21:48:40.788Z,11.85
2018-10-02T21:51:09.448Z,12.85
2018-10-02T21:53:39.404Z,9.88
2018-10-02T21:56:07.801Z,15.00
2018-10-02T21:58:36.264Z,11.27
2018-10-02T22:01:06.086Z,10.70
2018-10-02T22:03:37.273Z,27.73
2018-10-02T22:06:07.714Z,11.63
2018-10-02T22:08:36.555Z,11.50
2018-10-02T22:11:05.103Z,12.80
2018-10-02T22:13:35.758Z,14.07
2018-10-02T22:16:06.967Z,13.43
2018-10-02T22:18:35.500Z,14.50
2018-10-02T22:21:03.941Z,17.70
2018-10-02T22:23:32.651Z,13.17
2018-10-02T22:26:01.127Z,20.90
2018-10-02T22:28:29.643Z,13.90
2018-10-02T22:30:58.089Z,13.57
2018-10-02T22:33:26.592Z,15.37
2018-10-02T22:35:58.300Z,14.23
2018-10-02T22:38:26.890Z,12.53
2018-10-02T22:40:55.388Z,17.03
2018-10-02T22:43:23.807Z,15.87
2018-10-02T22:45:52.260Z,15.20
2018-10-02T22:48:20.704Z,17.85
2018-10-02T22:50:49.508Z,15.57
2018-10-02T22:53:17.964Z,13.43
2018-10-02T22:55:46.461Z,16.37
2018-10-02T22:58:14.968Z,13.85
2018-10-02T23:00:43.564Z,13.53
2018-10-02T23:03:14.843Z,14.03
2018-10-02T23:05:43.471Z,15.67
2018-10-02T23:08:15.568Z,20.53
2018-10-02T23:15:41.976Z,15.80
2018-10-02T23:18:14.579Z,11.60
2018-10-02T23:20:45.013Z,13.53
2018-10-02T23:23:15.172Z,12.10
2018-10-02T23:25:43.643Z,12.60
2018-10-02T23:28:15.796Z,15.55
2018-10-02T23:30:46.171Z,12.83
2018-10-02T23:33:15.147Z,10.35
2018-10-02T23:35:43.576Z,12.00
2018-10-02T23:38:14.621Z,12.27
2018-10-02T23:40:47.449Z,12.00
2018-10-02T23:43:24.438Z,12.30
2018-10-02T23:45:53.013Z,12.10
2018-10-02T23:48:21.440Z,15.37
2018-10-02T23:50:51.731Z,14.70
2018-10-02T23:53:20.161Z,11.30
2018-10-02T23:55:52.233Z,12.00
2018-10-02T23:58:23.012Z,13.00
